Terminal Aerodrome Forecast
Issued by NWS Sterling, VA

Current Version | Previous Version | Graphics & Text | Print | Product List | Glossary On
Versions: 1 2 3 4 5 6 7 8 9 10 11 12 13 14 15 16 17 18 19 20 21 22 23 24 25
405
FTUS41 KLWX 212320
TAFDCA
TAF
KDCA 212320Z 2200/2306 18004KT P6SM BKN050
     FM221500 18008KT P6SM BKN050 BKN200
     FM221800 18008G16KT P6SM BKN200
     FM230500 17008KT P6SM BKN015 OVC050=

USA.gov is the U.S. government's official web portal to all federal, state and local government web resources and services.